Observations for CARDIFF-WALES ARPT, United Kingdom (EGFF)

EGFF 231120Z 27007KT 9999 SCT004 BKN008 BKN020 15/15 Q1016  
EGFF 231050Z 27008KT 5000 VCSH SCT006 BKN009 OVC014 15/15 Q1016 
EGFF 231020Z AUTO 27008KT 9999 BKN009 OVC013 15/15 Q1015 RERA   
EGFF 230950Z AUTO 26007KT 9999 OVC012 15/14 Q1015   
EGFF 230920Z AUTO 25006KT 9999 OVC012 15/14 Q1015   
EGFF 230850Z AUTO VRB03KT 9999 OVC015 15/14 Q1015   
EGFF 230820Z AUTO 19003KT 9999 OVC015 14/13 Q1015   
EGFF 230750Z AUTO 18005KT 9999 OVC015 13/13 Q1015   
EGFF 230720Z AUTO 20004KT 9999 -RA FEW006 OVC011 13/13 Q1015 RERA REDZ  
EGFF 230650Z AUTO 21005KT 2600 RADZ BKN007 OVC014 13/12 Q1015   
EGFF 230620Z AUTO 17006KT 5000 -DZ BKN004 BKN011 OVC015 12/12 Q1015 
EGFF 230550Z AUTO 17006KT 4600 -DZ BKN003 BKN007 OVC012 12/12 Q1016 RERA REDZ   
EGFF 230520Z AUTO 17006KT 3000 RADZ SCT003 BKN006 OVC009 12/12 Q1016
EGFF 230450Z AUTO 18005KT 2800 DZ BKN011 BKN016 OVC026 12/12 Q1016 RERA 
EGFF 230420Z AUTO 19004KT 4200 -RA OVC015 13/11 Q1017   
EGFF 230350Z AUTO 20006KT 9999 -RA OVC017 13/11 Q1017   
EGFF 230320Z AUTO 21007KT 9999 -RA BKN017/// BKN024/// OVC031/// //////TCU 13/11 Q1017  
EGFF 230250Z AUTO 22008KT 180V250 9999 -RA BKN016/// OVC033/// //////TCU 13/11 Q1017
EGFF 230220Z AUTO 24010KT 9999 -RA FEW011 BKN023 BKN030 13/11 Q1017 
EGFF 230150Z AUTO 23008KT 210V270 9999 FEW018 OVC043 13/11 Q1018
EGFF 230120Z AUTO 22009KT 9999 BKN015/// BKN022/// OVC048/// //////TCU 13/11 Q1018  
EGFF 230050Z AUTO 24010KT 9999 BKN015 OVC037 13/11 Q1018
EGFF 230020Z AUTO 24011KT 9999 FEW017 SCT029 BKN038 13/11 Q1018 
EGFF 222350Z AUTO 24011KT 9999 -RA SCT016 BKN024 BKN033 12/11 Q1018 
EGFF 222320Z AUTO 25010KT 9999 -RA BKN016 BKN021 OVC034 13/11 Q1018 
EGFF 222250Z AUTO 25009KT 9999 BKN015 BKN019 BKN032 13/11 Q1018 
EGFF 222220Z AUTO 27010KT 9999 FEW018 SCT029 OVC044 13/11 Q1018 
EGFF 222150Z AUTO 26013KT 9999 SCT018 OVC046 13/10 Q1018
EGFF 222120Z AUTO 28010KT 9999 SCT021 BKN031 BKN039 12/10 Q1019 
EGFF 222050Z AUTO 29012KT 9000 -RA FEW021 SCT027 OVC033 11/10 Q1019 
EGFF 222020Z AUTO 27015G25KT 9999 BKN016 BKN027 BKN036 12/10 Q1019  
EGFF 221950Z AUTO 29012KT 9999 -RA FEW022 SCT028 BKN037 12/09 Q1019 
EGFF 221920Z AUTO 28014KT 9999 SCT019 SCT026 BKN032 12/09 Q1019 
EGFF 221850Z AUTO 29013KT 9999 FEW023 BKN048 12/09 Q1018
EGFF 221820Z AUTO 30013KT 9999 FEW023 SCT032 OVC049 12/08 Q1018 
EGFF 221750Z AUTO 30013KT 9999 SCT022 OVC049 12/09 Q1018
EGFF 221720Z AUTO 29016KT 9999 FEW025 OVC043 12/08 Q1018
EGFF 221650Z AUTO 29014KT 9999 BKN037 BKN046 12/08 Q1017
EGFF 221620Z AUTO 29014KT 9999 FEW024 SCT030 12/09 Q1017
EGFF 221550Z AUTO 29018KT 9999 FEW026 SCT036 BKN048 13/08 Q1017 
EGFF 221520Z AUTO 29022KT 9999 FEW025 SCT034 BKN041 13/08 Q1017 
EGFF 221450Z AUTO 28022G32KT 9999 SCT022 BKN027 BKN037 13/09 Q1017  
EGFF 221420Z AUTO 29019G29KT 9999 FEW019 SCT049 13/09 Q1016 
EGFF 221350Z AUTO 29022KT 9999 BKN019 BKN046 12/09 Q1016
EGFF 221320Z AUTO 29023G34KT 9999 SCT020 BKN049 13/09 Q1016 
EGFF 221250Z AUTO 29025G35KT 9999 BKN019/// BKN023/// //////TCU 13/09 Q1016 
EGFF 221220Z AUTO 29019KT 9999 -RA BKN018/// BKN027/// //////TCU 13/10 Q1016
EGFF 221150Z AUTO 29026G38KT 9999 FEW024/// SCT035/// BKN043/// //////TCU 12/08 Q1016   
EGFF 221120Z AUTO 29023G33KT 9999 SCT021 13/08 Q1016
EGFF 221050Z AUTO 29021KT 9999 FEW046 12/08 Q1015